createdAt,value
2022-11-05T00:04:02.171Z,90.26
2022-11-05T00:14:08.472Z,90.07
2022-11-05T00:24:14.618Z,89.94
2022-11-05T00:34:20.622Z,89.64
2022-11-05T00:44:28.399Z,89.59
2022-11-05T00:54:34.322Z,89.80
2022-11-05T01:04:41.743Z,89.46
2022-11-05T01:14:47.577Z,89.39
2022-11-05T01:24:55.881Z,89.35
2022-11-05T01:35:02.239Z,89.60
2022-11-05T01:45:08.429Z,89.43
2022-11-05T01:55:14.411Z,89.46
2022-11-05T02:05:22.302Z,89.08
2022-11-05T02:15:28.286Z,89.31
2022-11-05T02:25:34.559Z,89.35
2022-11-05T02:35:40.643Z,89.61
2022-11-05T02:45:47.237Z,89.23
2022-11-05T02:55:53.705Z,89.39
2022-11-05T03:06:01.472Z,89.51
2022-11-05T03:16:07.832Z,89.63
2022-11-05T03:26:13.966Z,89.79
2022-11-05T03:36:20.267Z,89.94
2022-11-05T03:46:26.752Z,89.80
2022-11-05T03:56:32.853Z,89.95
2022-11-05T04:06:39.201Z,89.87
2022-11-05T04:16:45.371Z,89.79
2022-11-05T04:26:51.174Z,89.64
2022-11-05T04:36:57.814Z,89.48
2022-11-05T04:47:03.936Z,89.35
2022-11-05T04:57:10.109Z,89.40
2022-11-05T05:07:17.902Z,89.55
2022-11-05T05:17:23.906Z,89.56
2022-11-05T05:27:33.521Z,89.30
2022-11-05T05:37:40.230Z,89.27
2022-11-05T05:47:47.639Z,89.99
2022-11-05T05:57:53.473Z,91.46
2022-11-05T06:08:03.346Z,90.59
2022-11-05T06:18:10.274Z,90.55
2022-11-05T06:28:17.729Z,90.36
2022-11-05T06:38:23.034Z,90.49
2022-11-05T06:48:28.359Z,90.38
2022-11-05T06:58:34.308Z,90.47
2022-11-05T07:08:40.387Z,90.44
2022-11-05T07:18:46.073Z,89.97
2022-11-05T07:28:51.429Z,89.59
2022-11-05T07:39:00.363Z,89.37
2022-11-05T07:49:06.634Z,89.87
2022-11-05T07:59:12.350Z,88.99
2022-11-05T08:09:18.107Z,89.03
2022-11-05T08:19:23.895Z,88.84
2022-11-05T08:29:28.733Z,88.21
2022-11-05T08:39:34.797Z,88.75
2022-11-05T08:49:40.310Z,88.57
2022-11-05T08:59:46.181Z,87.64
2022-11-05T09:09:51.656Z,87.10
2022-11-05T09:19:57.593Z,86.28
2022-11-05T09:30:03.604Z,86.01
2022-11-05T09:40:09.230Z,85.06
2022-11-05T09:50:15.639Z,84.53
2022-11-05T10:00:21.310Z,84.00
2022-11-05T10:10:27.519Z,82.27
2022-11-05T10:20:33.377Z,82.43
2022-11-05T10:30:39.097Z,80.80
2022-11-05T10:40:45.254Z,79.89
2022-11-05T10:50:50.990Z,80.05
2022-11-05T11:00:56.766Z,80.83
2022-11-05T11:11:02.674Z,87.05
2022-11-05T11:21:08.777Z,100.00
2022-11-05T11:31:14.952Z,94.80
2022-11-05T11:41:21.257Z,87.21
2022-11-05T11:51:27.314Z,85.01
2022-11-05T12:01:32.581Z,85.30
2022-11-05T12:11:38.198Z,84.64
2022-11-05T12:21:59.201Z,84.19
2022-11-05T12:31:54.505Z,84.09
2022-11-05T12:42:00.013Z,85.04
2022-11-05T12:52:05.517Z,84.44
2022-11-05T13:02:11.277Z,84.59
2022-11-05T13:12:17.166Z,85.20
2022-11-05T13:22:22.534Z,85.55
2022-11-05T13:32:28.113Z,86.10
2022-11-05T13:42:33.984Z,85.78
2022-11-05T13:52:39.919Z,83.38
2022-11-05T14:02:45.880Z,85.96
2022-11-05T14:12:51.558Z,84.82
2022-11-05T14:22:57.863Z,81.34
2022-11-05T14:33:03.082Z,81.73
2022-11-05T14:43:08.566Z,82.36
2022-11-05T14:53:14.465Z,83.55
2022-11-05T15:03:20.461Z,85.36
2022-11-05T15:13:25.909Z,84.33
2022-11-05T15:23:31.303Z,84.31
2022-11-05T15:33:38.772Z,84.06
2022-11-05T15:43:47.832Z,85.45
2022-11-05T15:54:23.766Z,86.58
2022-11-05T16:04:09.479Z,87.65
2022-11-05T16:14:14.747Z,88.60
2022-11-05T16:24:28.103Z,89.57
2022-11-05T16:34:33.241Z,90.77
2022-11-05T16:44:40.084Z,91.59
2022-11-05T16:54:45.839Z,92.46
2022-11-05T17:04:51.662Z,93.13
2022-11-05T17:14:59.381Z,93.69
2022-11-05T17:25:04.767Z,94.17
2022-11-05T17:35:12.851Z,94.74
2022-11-05T17:45:19.016Z,95.53
2022-11-05T17:55:26.840Z,95.21
2022-11-05T18:05:32.628Z,95.21
2022-11-05T18:15:41.241Z,95.60
2022-11-05T18:25:47.741Z,95.50
2022-11-05T18:35:55.346Z,96.11
2022-11-05T18:46:01.343Z,96.13
2022-11-05T18:56:08.824Z,96.03
2022-11-05T19:06:14.220Z,96.33
2022-11-05T19:16:22.094Z,96.49
2022-11-05T19:26:29.092Z,96.74
2022-11-05T19:36:35.822Z,96.73
2022-11-05T19:46:42.205Z,97.09
2022-11-05T19:56:49.685Z,96.99
2022-11-05T20:06:55.608Z,97.21
2022-11-05T20:17:03.791Z,96.78
2022-11-05T20:27:09.906Z,97.05
2022-11-05T20:37:17.802Z,97.30
2022-11-05T20:47:22.992Z,97.48
2022-11-05T20:57:30.441Z,97.51
2022-11-05T21:07:36.364Z,97.57
2022-11-05T21:17:43.799Z,97.87
2022-11-05T21:27:49.394Z,98.19
2022-11-05T21:37:57.621Z,98.41
2022-11-05T21:48:03.964Z,98.68
2022-11-05T21:58:12.005Z,98.80
2022-11-05T22:08:18.368Z,98.67
2022-11-05T22:18:25.857Z,98.75
2022-11-05T22:28:31.684Z,99.26
2022-11-05T22:38:39.394Z,99.44
2022-11-05T22:48:45.543Z,98.07
2022-11-05T22:58:51.724Z,98.69
2022-11-05T23:08:58.108Z,99.36
2022-11-05T23:19:05.811Z,98.74
2022-11-05T23:29:11.515Z,98.11
2022-11-05T23:39:18.853Z,98.69
2022-11-05T23:49:24.824Z,99.06
2022-11-05T23:59:32.436Z,98.83
